sensor_id;sensor_type;location;lat;lon;timestamp;temperature;humidity
1355;DHT22;671;48.972;9.276;2024-02-14T00:02:03;3.90;99.90
1355;DHT22;671;48.972;9.276;2024-02-14T00:04:31;3.90;99.90
1355;DHT22;671;48.972;9.276;2024-02-14T00:06:57;4.00;99.90
1355;DHT22;671;48.972;9.276;2024-02-14T00:09:24;4.00;99.90
1355;DHT22;671;48.972;9.276;2024-02-14T00:11:50;4.00;99.90
1355;DHT22;671;48.972;9.276;2024-02-14T00:14:17;4.10;99.90
1355;DHT22;671;48.972;9.276;2024-02-14T00:16:45;4.20;99.90
1355;DHT22;671;48.972;9.276;2024-02-14T00:19:12;4.20;99.90
1355;DHT22;671;48.972;9.276;2024-02-14T00:21:38;4.30;99.90
1355;DHT22;671;48.972;9.276;2024-02-14T00:24:05;4.40;99.90
1355;DHT22;671;48.972;9.276;2024-02-14T00:26:32;4.50;99.90
1355;DHT22;671;48.972;9.276;2024-02-14T00:28:58;4.40;99.90
1355;DHT22;671;48.972;9.276;2024-02-14T00:31:25;4.50;99.90
1355;DHT22;671;48.972;9.276;2024-02-14T00:33:51;4.40;99.90
1355;DHT22;671;48.972;9.276;2024-02-14T00:36:18;4.40;99.90
1355;DHT22;671;48.972;9.276;2024-02-14T00:38:44;4.40;99.90
1355;DHT22;671;48.972;9.276;2024-02-14T00:41:11;4.40;99.90
1355;DHT22;671;48.972;9.276;2024-02-14T00:43:37;4.40;99.90
1355;DHT22;671;48.972;9.276;2024-02-14T00:46:04;4.40;99.90
1355;DHT22;671;48.972;9.276;2024-02-14T00:48:32;4.40;99.90
1355;DHT22;671;48.972;9.276;2024-02-14T00:50:59;4.50;99.90
1355;DHT22;671;48.972;9.276;2024-02-14T00:53:25;4.50;99.90
1355;DHT22;671;48.972;9.276;2024-02-14T00:55:52;4.50;99.90
1355;DHT22;671;48.972;9.276;2024-02-14T00:58:18;4.60;99.90
1355;DHT22;671;48.972;9.276;2024-02-14T01:00:45;4.70;99.90
1355;DHT22;671;48.972;9.276;2024-02-14T01:03:11;4.70;99.90
1355;DHT22;671;48.972;9.276;2024-02-14T01:05:39;4.70;99.90
1355;DHT22;671;48.972;9.276;2024-02-14T01:08:05;4.80;99.90
1355;DHT22;671;48.972;9.276;2024-02-14T01:10:33;4.90;99.90
1355;DHT22;671;48.972;9.276;2024-02-14T01:12:59;4.90;99.90
1355;DHT22;671;48.972;9.276;2024-02-14T01:15:26;5.00;99.90
1355;DHT22;671;48.972;9.276;2024-02-14T01:17:52;5.00;99.90
1355;DHT22;671;48.972;9.276;2024-02-14T01:20:19;5.00;99.90
1355;DHT22;671;48.972;9.276;2024-02-14T01:22:46;5.10;99.90
1355;DHT22;671;48.972;9.276;2024-02-14T01:25:13;5.20;99.90
1355;DHT22;671;48.972;9.276;2024-02-14T01:27:39;5.20;99.90
1355;DHT22;671;48.972;9.276;2024-02-14T01:30:07;5.20;99.90
1355;DHT22;671;48.972;9.276;2024-02-14T01:32:34;5.20;99.90
1355;DHT22;671;48.972;9.276;2024-02-14T01:35:00;5.20;99.90
1355;DHT22;671;48.972;9.276;2024-02-14T01:37:27;5.20;99.90
1355;DHT22;671;48.972;9.276;2024-02-14T01:39:55;5.30;99.90
1355;DHT22;671;48.972;9.276;2024-02-14T01:42:21;5.30;99.90
1355;DHT22;671;48.972;9.276;2024-02-14T01:44:48;5.30;99.90
1355;DHT22;671;48.972;9.276;2024-02-14T01:47:14;5.30;99.90
1355;DHT22;671;48.972;9.276;2024-02-14T01:49:41;5.40;99.90
1355;DHT22;671;48.972;9.276;2024-02-14T01:52:10;5.40;99.90
1355;DHT22;671;48.972;9.276;2024-02-14T01:54:37;5.40;99.90
1355;DHT22;671;48.972;9.276;2024-02-14T01:57:05;5.50;99.90
1355;DHT22;671;48.972;9.276;2024-02-14T01:59:33;5.50;99.90
1355;DHT22;671;48.972;9.276;2024-02-14T02:02:04;5.60;99.90
1355;DHT22;671;48.972;9.276;2024-02-14T02:04:33;5.60;99.90
1355;DHT22;671;48.972;9.276;2024-02-14T02:07:01;5.60;99.90
1355;DHT22;671;48.972;9.276;2024-02-14T02:09:27;5.60;99.90
1355;DHT22;671;48.972;9.276;2024-02-14T02:11:54;5.70;99.90
1355;DHT22;671;48.972;9.276;2024-02-14T02:14:22;5.80;99.90
1355;DHT22;671;48.972;9.276;2024-02-14T02:16:48;5.80;99.90
1355;DHT22;671;48.972;9.276;2024-02-14T02:19:15;5.90;99.90
1355;DHT22;671;48.972;9.276;2024-02-14T02:21:42;5.90;99.90
1355;DHT22;671;48.972;9.276;2024-02-14T02:24:14;5.90;99.90
1355;DHT22;671;48.972;9.276;2024-02-14T02:26:41;5.90;99.90
1355;DHT22;671;48.972;9.276;2024-02-14T02:29:07;5.90;99.90
1355;DHT22;671;48.972;9.276;2024-02-14T02:31:34;6.00;99.90
1355;DHT22;671;48.972;9.276;2024-02-14T02:34:00;6.00;99.90
1355;DHT22;671;48.972;9.276;2024-02-14T02:36:27;6.00;99.90
1355;DHT22;671;48.972;9.276;2024-02-14T02:38:56;6.00;99.90
1355;DHT22;671;48.972;9.276;2024-02-14T02:41:24;6.00;99.90
1355;DHT22;671;48.972;9.276;2024-02-14T02:43:50;6.00;99.90
1355;DHT22;671;48.972;9.276;2024-02-14T02:46:17;6.10;99.90
1355;DHT22;671;48.972;9.276;2024-02-14T02:48:44;6.10;99.90
1355;DHT22;671;48.972;9.276;2024-02-14T02:51:10;6.10;99.90
1355;DHT22;671;48.972;9.276;2024-02-14T02:53:36;6.10;99.90
1355;DHT22;671;48.972;9.276;2024-02-14T02:56:04;6.20;99.90
1355;DHT22;671;48.972;9.276;2024-02-14T02:58:31;6.20;99.90
1355;DHT22;671;48.972;9.276;2024-02-14T03:00:59;6.20;99.90
1355;DHT22;671;48.972;9.276;2024-02-14T03:03:25;6.20;99.90
1355;DHT22;671;48.972;9.276;2024-02-14T03:05:54;6.20;99.90
1355;DHT22;671;48.972;9.276;2024-02-14T03:08:23;6.20;99.90
1355;DHT22;671;48.972;9.276;2024-02-14T03:10:52;6.20;99.90
1355;DHT22;671;48.972;9.276;2024-02-14T03:13:18;6.20;99.90
1355;DHT22;671;48.972;9.276;2024-02-14T03:15:46;6.20;99.90
1355;DHT22;671;48.972;9.276;2024-02-14T03:18:12;6.20;99.90
1355;DHT22;671;48.972;9.276;2024-02-14T03:20:39;6.20;99.90
1355;DHT22;671;48.972;9.276;2024-02-14T03:23:05;6.20;99.90
1355;DHT22;671;48.972;9.276;2024-02-14T03:25:32;6.10;99.90
1355;DHT22;671;48.972;9.276;2024-02-14T03:27:59;6.10;99.90
1355;DHT22;671;48.972;9.276;2024-02-14T03:30:25;6.00;99.90
1355;DHT22;671;48.972;9.276;2024-02-14T03:32:52;5.90;99.90
1355;DHT22;671;48.972;9.276;2024-02-14T03:35:18;5.90;99.90
1355;DHT22;671;48.972;9.276;2024-02-14T03:37:47;5.80;99.90
1355;DHT22;671;48.972;9.276;2024-02-14T03:40:15;5.70;99.90
1355;DHT22;671;48.972;9.276;2024-02-14T03:42:41;5.60;99.90
1355;DHT22;671;48.972;9.276;2024-02-14T03:45:08;5.60;99.90
1355;DHT22;671;48.972;9.276;2024-02-14T03:47:35;5.50;99.90
1355;DHT22;671;48.972;9.276;2024-02-14T03:50:03;5.50;99.90
1355;DHT22;671;48.972;9.276;2024-02-14T03:52:30;5.50;99.90
1355;DHT22;671;48.972;9.276;2024-02-14T03:55:00;5.60;99.90
1355;DHT22;671;48.972;9.276;2024-02-14T03:57:27;5.60;99.90
1355;DHT22;671;48.972;9.276;2024-02-14T03:59:55;5.60;99.90
1355;DHT22;671;48.972;9.276;2024-02-14T04:02:24;5.70;99.90
1355;DHT22;671;48.972;9.276;2024-02-14T04:04:54;5.80;99.90
1355;DHT22;671;48.972;9.276;2024-02-14T04:07:20;5.80;99.90
1355;DHT22;671;48.972;9.276;2024-02-14T04:09:48;5.90;99.90
1355;DHT22;671;48.972;9.276;2024-02-14T04:12:14;5.90;99.90
1355;DHT22;671;48.972;9.276;2024-02-14T04:14:41;6.00;99.90
1355;DHT22;671;48.972;9.276;2024-02-14T04:17:08;6.00;99.90
1355;DHT22;671;48.972;9.276;2024-02-14T04:19:34;6.10;99.90
1355;DHT22;671;48.972;9.276;2024-02-14T04:22:01;6.20;99.90
1355;DHT22;671;48.972;9.276;2024-02-14T04:24:27;6.20;99.90
1355;DHT22;671;48.972;9.276;2024-02-14T04:26:54;6.30;99.90
1355;DHT22;671;48.972;9.276;2024-02-14T04:29:22;6.30;99.90
1355;DHT22;671;48.972;9.276;2024-02-14T04:31:49;6.30;99.90
1355;DHT22;671;48.972;9.276;2024-02-14T04:34:15;6.30;99.90
1355;DHT22;671;48.972;9.276;2024-02-14T04:36:42;6.30;99.90
1355;DHT22;671;48.972;9.276;2024-02-14T04:39:09;6.40;99.90
1355;DHT22;671;48.972;9.276;2024-02-14T04:41:35;6.50;99.90
1355;DHT22;671;48.972;9.276;2024-02-14T04:44:04;6.50;99.90
1355;DHT22;671;48.972;9.276;2024-02-14T04:46:33;6.50;99.90
1355;DHT22;671;48.972;9.276;2024-02-14T04:49:01;6.60;99.90
1355;DHT22;671;48.972;9.276;2024-02-14T04:51:30;6.60;99.90
1355;DHT22;671;48.972;9.276;2024-02-14T04:53:57;6.70;99.90
1355;DHT22;671;48.972;9.276;2024-02-14T04:56:27;6.80;99.90
1355;DHT22;671;48.972;9.276;2024-02-14T04:58:54;6.80;99.90
1355;DHT22;671;48.972;9.276;2024-02-14T05:01:23;6.80;99.90
1355;DHT22;671;48.972;9.276;2024-02-14T05:03:50;6.90;99.90
1355;DHT22;671;48.972;9.276;2024-02-14T05:06:17;6.90;99.90
1355;DHT22;671;48.972;9.276;2024-02-14T05:08:44;6.90;99.90
1355;DHT22;671;48.972;9.276;2024-02-14T05:11:10;7.00;99.90
1355;DHT22;671;48.972;9.276;2024-02-14T05:13:36;7.00;99.90
1355;DHT22;671;48.972;9.276;2024-02-14T05:16:04;7.00;99.90
1355;DHT22;671;48.972;9.276;2024-02-14T05:18:31;7.10;99.90
1355;DHT22;671;48.972;9.276;2024-02-14T05:20:57;7.10;99.90
1355;DHT22;671;48.972;9.276;2024-02-14T05:23:24;7.10;99.90
1355;DHT22;671;48.972;9.276;2024-02-14T05:25:51;7.10;99.90
1355;DHT22;671;48.972;9.276;2024-02-14T05:28:17;7.20;99.90
1355;DHT22;671;48.972;9.276;2024-02-14T05:30:45;7.20;99.90
1355;DHT22;671;48.972;9.276;2024-02-14T05:33:11;7.20;99.90
1355;DHT22;671;48.972;9.276;2024-02-14T05:35:38;7.20;99.90
1355;DHT22;671;48.972;9.276;2024-02-14T05:38:04;7.20;99.90
1355;DHT22;671;48.972;9.276;2024-02-14T05:40:34;7.20;99.90
1355;DHT22;671;48.972;9.276;2024-02-14T05:43:02;7.30;99.90
1355;DHT22;671;48.972;9.276;2024-02-14T05:45:28;7.30;99.90
1355;DHT22;671;48.972;9.276;2024-02-14T05:47:55;7.30;99.90
1355;DHT22;671;48.972;9.276;2024-02-14T05:50:21;7.30;99.90
1355;DHT22;671;48.972;9.276;2024-02-14T05:52:48;7.40;99.90
1355;DHT22;671;48.972;9.276;2024-02-14T05:55:14;7.40;99.90
1355;DHT22;671;48.972;9.276;2024-02-14T05:57:41;7.40;99.90
1355;DHT22;671;48.972;9.276;2024-02-14T06:00:07;7.40;99.90
1355;DHT22;671;48.972;9.276;2024-02-14T06:02:36;7.50;99.90
1355;DHT22;671;48.972;9.276;2024-02-14T06:05:03;7.50;99.90
1355;DHT22;671;48.972;9.276;2024-02-14T06:07:30;7.50;99.90
1355;DHT22;671;48.972;9.276;2024-02-14T06:09:56;7.60;99.90
1355;DHT22;671;48.972;9.276;2024-02-14T06:12:22;7.60;99.90
1355;DHT22;671;48.972;9.276;2024-02-14T06:14:49;7.60;99.90
1355;DHT22;671;48.972;9.276;2024-02-14T06:17:16;7.60;99.90
1355;DHT22;671;48.972;9.276;2024-02-14T06:19:43;7.60;99.90
1355;DHT22;671;48.972;9.276;2024-02-14T06:22:09;7.60;99.90
1355;DHT22;671;48.972;9.276;2024-02-14T06:24:37;7.60;99.90
1355;DHT22;671;48.972;9.276;2024-02-14T06:27:03;7.60;99.90
1355;DHT22;671;48.972;9.276;2024-02-14T06:29:30;7.60;99.90
1355;DHT22;671;48.972;9.276;2024-02-14T06:31:56;7.70;99.90
1355;DHT22;671;48.972;9.276;2024-02-14T06:34:22;7.70;99.90
1355;DHT22;671;48.972;9.276;2024-02-14T06:36:49;7.70;99.90
1355;DHT22;671;48.972;9.276;2024-02-14T06:39:15;7.70;99.90
1355;DHT22;671;48.972;9.276;2024-02-14T06:41:42;7.70;99.90
1355;DHT22;671;48.972;9.276;2024-02-14T06:44:11;7.70;99.90
1355;DHT22;671;48.972;9.276;2024-02-14T06:46:37;7.80;99.90
1355;DHT22;671;48.972;9.276;2024-02-14T06:49:04;7.90;99.90
1355;DHT22;671;48.972;9.276;2024-02-14T06:51:31;7.90;99.90
1355;DHT22;671;48.972;9.276;2024-02-14T06:53:57;7.90;99.90
1355;DHT22;671;48.972;9.276;2024-02-14T06:56:24;7.90;99.90
1355;DHT22;671;48.972;9.276;2024-02-14T06:58:50;8.00;99.90
1355;DHT22;671;48.972;9.276;2024-02-14T07:01:20;8.00;99.90
1355;DHT22;671;48.972;9.276;2024-02-14T07:03:49;8.00;99.90
1355;DHT22;671;48.972;9.276;2024-02-14T07:06:17;8.10;99.90
1355;DHT22;671;48.972;9.276;2024-02-14T07:08:44;8.10;99.90
1355;DHT22;671;48.972;9.276;2024-02-14T07:11:10;8.10;99.90
1355;DHT22;671;48.972;9.276;2024-02-14T07:13:37;8.10;99.90
1355;DHT22;671;48.972;9.276;2024-02-14T07:16:04;8.20;99.90
1355;DHT22;671;48.972;9.276;2024-02-14T07:18:30;8.20;99.90
1355;DHT22;671;48.972;9.276;2024-02-14T07:20:57;8.20;99.90
1355;DHT22;671;48.972;9.276;2024-02-14T07:23:23;8.20;99.90
1355;DHT22;671;48.972;9.276;2024-02-14T07:25:50;8.30;99.90
1355;DHT22;671;48.972;9.276;2024-02-14T07:28:16;8.30;99.90
1355;DHT22;671;48.972;9.276;2024-02-14T07:30:44;8.40;99.90
1355;DHT22;671;48.972;9.276;2024-02-14T07:33:10;8.50;99.90
1355;DHT22;671;48.972;9.276;2024-02-14T07:35:37;8.50;99.90
1355;DHT22;671;48.972;9.276;2024-02-14T07:38:04;8.60;99.90
1355;DHT22;671;48.972;9.276;2024-02-14T07:40:30;8.60;99.90
1355;DHT22;671;48.972;9.276;2024-02-14T07:42:57;8.70;99.90
1355;DHT22;671;48.972;9.276;2024-02-14T07:45:24;8.80;99.90
1355;DHT22;671;48.972;9.276;2024-02-14T07:47:50;9.00;99.90
1355;DHT22;671;48.972;9.276;2024-02-14T07:50:17;9.10;99.90
1355;DHT22;671;48.972;9.276;2024-02-14T07:52:44;9.30;99.90
1355;DHT22;671;48.972;9.276;2024-02-14T07:55:11;9.40;99.90
1355;DHT22;671;48.972;9.276;2024-02-14T07:57:41;9.50;99.90
1355;DHT22;671;48.972;9.276;2024-02-14T08:00:09;9.60;99.90
1355;DHT22;671;48.972;9.276;2024-02-14T08:02:36;9.70;99.90
1355;DHT22;671;48.972;9.276;2024-02-14T08:05:06;9.80;99.90
1355;DHT22;671;48.972;9.276;2024-02-14T08:07:32;9.90;99.90
1355;DHT22;671;48.972;9.276;2024-02-14T08:09:59;9.90;99.90
1355;DHT22;671;48.972;9.276;2024-02-14T08:12:25;10.00;99.90
1355;DHT22;671;48.972;9.276;2024-02-14T08:14:52;10.00;99.90
1355;DHT22;671;48.972;9.276;2024-02-14T08:17:19;10.00;99.90
1355;DHT22;671;48.972;9.276;2024-02-14T08:19:45;10.00;99.90
1355;DHT22;671;48.972;9.276;2024-02-14T08:22:11;10.00;99.90
1355;DHT22;671;48.972;9.276;2024-02-14T08:24:38;10.00;99.90
1355;DHT22;671;48.972;9.276;2024-02-14T08:27:06;10.00;99.90
1355;DHT22;671;48.972;9.276;2024-02-14T08:29:33;10.10;99.90
1355;DHT22;671;48.972;9.276;2024-02-14T08:31:59;10.10;99.90
1355;DHT22;671;48.972;9.276;2024-02-14T08:34:26;10.10;99.90
1355;DHT22;671;48.972;9.276;2024-02-14T08:36:52;10.20;99.90
1355;DHT22;671;48.972;9.276;2024-02-14T08:39:19;10.20;99.90
1355;DHT22;671;48.972;9.276;2024-02-14T08:41:46;10.30;99.90
1355;DHT22;671;48.972;9.276;2024-02-14T08:44:13;10.50;99.90
1355;DHT22;671;48.972;9.276;2024-02-14T08:46:40;10.60;99.90
1355;DHT22;671;48.972;9.276;2024-02-14T08:49:08;10.70;99.90
1355;DHT22;671;48.972;9.276;2024-02-14T08:51:36;10.80;99.90
1355;DHT22;671;48.972;9.276;2024-02-14T08:54:04;10.90;99.90
1355;DHT22;671;48.972;9.276;2024-02-14T08:56:32;11.00;99.90
1355;DHT22;671;48.972;9.276;2024-02-14T08:59:02;11.10;99.90
1355;DHT22;671;48.972;9.276;2024-02-14T09:01:30;11.20;99.90
1355;DHT22;671;48.972;9.276;2024-02-14T09:03:57;11.40;99.90
1355;DHT22;671;48.972;9.276;2024-02-14T09:06:25;11.50;99.90
1355;DHT22;671;48.972;9.276;2024-02-14T09:08:52;11.50;99.90
1355;DHT22;671;48.972;9.276;2024-02-14T09:11:19;11.50;99.90
1355;DHT22;671;48.972;9.276;2024-02-14T09:13:46;11.50;99.90
1355;DHT22;671;48.972;9.276;2024-02-14T09:16:20;11.50;99.90
1355;DHT22;671;48.972;9.276;2024-02-14T09:18:48;11.50;99.90
1355;DHT22;671;48.972;9.276;2024-02-14T09:21:14;11.50;99.90
1355;DHT22;671;48.972;9.276;2024-02-14T09:23:41;11.50;99.90
1355;DHT22;671;48.972;9.276;2024-02-14T09:26:08;11.50;99.90
1355;DHT22;671;48.972;9.276;2024-02-14T09:28:35;11.40;99.90
1355;DHT22;671;48.972;9.276;2024-02-14T09:31:02;11.40;99.90
1355;DHT22;671;48.972;9.276;2024-02-14T09:33:30;11.40;99.90
1355;DHT22;671;48.972;9.276;2024-02-14T09:35:56;11.50;99.90
1355;DHT22;671;48.972;9.276;2024-02-14T09:38:23;11.50;99.90
1355;DHT22;671;48.972;9.276;2024-02-14T09:41:09;11.40;99.90
1355;DHT22;671;48.972;9.276;2024-02-14T09:43:44;11.50;99.90
1355;DHT22;671;48.972;9.276;2024-02-14T09:46:14;11.60;99.90
1355;DHT22;671;48.972;9.276;2024-02-14T09:48:45;11.60;99.90
1355;DHT22;671;48.972;9.276;2024-02-14T09:51:12;11.70;99.90
1355;DHT22;671;48.972;9.276;2024-02-14T09:53:39;11.80;99.90
1355;DHT22;671;48.972;9.276;2024-02-14T09:56:09;11.90;99.90
1355;DHT22;671;48.972;9.276;2024-02-14T09:58:37;12.00;99.90
1355;DHT22;671;48.972;9.276;2024-02-14T10:01:04;12.10;99.90
1355;DHT22;671;48.972;9.276;2024-02-14T10:03:31;12.20;99.90
1355;DHT22;671;48.972;9.276;2024-02-14T10:05:57;12.30;99.90
1355;DHT22;671;48.972;9.276;2024-02-14T10:08:24;12.40;99.90
1355;DHT22;671;48.972;9.276;2024-02-14T10:10:52;12.60;99.90
1355;DHT22;671;48.972;9.276;2024-02-14T10:13:19;12.60;99.90
1355;DHT22;671;48.972;9.276;2024-02-14T10:15:45;12.70;99.90
1355;DHT22;671;48.972;9.276;2024-02-14T10:18:14;12.80;99.90
1355;DHT22;671;48.972;9.276;2024-02-14T10:20:41;12.80;99.90
1355;DHT22;671;48.972;9.276;2024-02-14T10:23:11;13.00;99.90
1355;DHT22;671;48.972;9.276;2024-02-14T10:25:38;13.00;99.90
1355;DHT22;671;48.972;9.276;2024-02-14T10:28:05;13.10;99.90
1355;DHT22;671;48.972;9.276;2024-02-14T10:30:36;13.20;99.90
1355;DHT22;671;48.972;9.276;2024-02-14T10:33:04;13.40;99.90
1355;DHT22;671;48.972;9.276;2024-02-14T10:35:35;13.50;99.90
1355;DHT22;671;48.972;9.276;2024-02-14T10:38:03;13.60;99.90
1355;DHT22;671;48.972;9.276;2024-02-14T10:40:32;13.60;99.90
1355;DHT22;671;48.972;9.276;2024-02-14T10:42:58;13.70;99.90
1355;DHT22;671;48.972;9.276;2024-02-14T10:45:25;13.80;99.90
1355;DHT22;671;48.972;9.276;2024-02-14T10:47:53;13.90;99.90
1355;DHT22;671;48.972;9.276;2024-02-14T10:50:23;14.00;99.90
1355;DHT22;671;48.972;9.276;2024-02-14T10:52:53;14.10;99.90
1355;DHT22;671;48.972;9.276;2024-02-14T10:55:24;14.10;99.90
1355;DHT22;671;48.972;9.276;2024-02-14T10:57:53;14.30;99.90
1355;DHT22;671;48.972;9.276;2024-02-14T11:00:20;14.40;99.90
1355;DHT22;671;48.972;9.276;2024-02-14T11:02:48;14.30;99.90
1355;DHT22;671;48.972;9.276;2024-02-14T11:05:16;14.40;99.90
1355;DHT22;671;48.972;9.276;2024-02-14T11:07:45;14.30;99.90
1355;DHT22;671;48.972;9.276;2024-02-14T11:10:14;14.30;99.90
1355;DHT22;671;48.972;9.276;2024-02-14T11:12:41;14.50;99.90
1355;DHT22;671;48.972;9.276;2024-02-14T11:15:16;14.50;99.90
1355;DHT22;671;48.972;9.276;2024-02-14T11:17:44;14.60;99.90
1355;DHT22;671;48.972;9.276;2024-02-14T11:20:17;14.70;99.90
1355;DHT22;671;48.972;9.276;2024-02-14T11:22:54;14.70;99.90
1355;DHT22;671;48.972;9.276;2024-02-14T11:25:33;14.70;99.90
1355;DHT22;671;48.972;9.276;2024-02-14T11:28:12;14.70;99.90
1355;DHT22;671;48.972;9.276;2024-02-14T11:30:40;14.50;99.90
1355;DHT22;671;48.972;9.276;2024-02-14T11:33:20;14.40;99.90
1355;DHT22;671;48.972;9.276;2024-02-14T11:35:48;14.20;99.90
1355;DHT22;671;48.972;9.276;2024-02-14T11:38:18;14.10;99.90
1355;DHT22;671;48.972;9.276;2024-02-14T11:40:44;14.00;99.90
1355;DHT22;671;48.972;9.276;2024-02-14T11:43:18;13.90;99.90
1355;DHT22;671;48.972;9.276;2024-02-14T11:45:45;13.90;99.90
1355;DHT22;671;48.972;9.276;2024-02-14T11:48:13;13.90;99.90
1355;DHT22;671;48.972;9.276;2024-02-14T11:50:40;13.90;99.90
1355;DHT22;671;48.972;9.276;2024-02-14T11:53:07;13.90;99.90
1355;DHT22;671;48.972;9.276;2024-02-14T11:55:36;14.00;99.90
1355;DHT22;671;48.972;9.276;2024-02-14T11:58:21;14.00;99.90
1355;DHT22;671;48.972;9.276;2024-02-14T12:00:48;14.10;99.90
1355;DHT22;671;48.972;9.276;2024-02-14T12:03:24;14.00;99.90
1355;DHT22;671;48.972;9.276;2024-02-14T12:05:53;13.90;99.90
1355;DHT22;671;48.972;9.276;2024-02-14T12:08:20;13.90;99.90
1355;DHT22;671;48.972;9.276;2024-02-14T12:10:47;13.80;99.90
1355;DHT22;671;48.972;9.276;2024-02-14T12:13:17;13.90;99.90
1355;DHT22;671;48.972;9.276;2024-02-14T12:15:45;13.90;99.90
1355;DHT22;671;48.972;9.276;2024-02-14T12:18:12;13.90;99.90
1355;DHT22;671;48.972;9.276;2024-02-14T12:20:41;13.90;99.90
1355;DHT22;671;48.972;9.276;2024-02-14T12:23:07;13.90;99.90
1355;DHT22;671;48.972;9.276;2024-02-14T12:25:34;14.00;99.90
1355;DHT22;671;48.972;9.276;2024-02-14T12:28:01;14.00;99.90
1355;DHT22;671;48.972;9.276;2024-02-14T12:30:51;14.10;99.90
1355;DHT22;671;48.972;9.276;2024-02-14T12:33:27;14.30;99.90
1355;DHT22;671;48.972;9.276;2024-02-14T12:35:55;14.40;99.90
1355;DHT22;671;48.972;9.276;2024-02-14T12:38:22;14.60;99.90
1355;DHT22;671;48.972;9.276;2024-02-14T12:40:50;14.80;99.90
1355;DHT22;671;48.972;9.276;2024-02-14T12:43:17;14.80;99.90
1355;DHT22;671;48.972;9.276;2024-02-14T12:45:44;14.90;99.90
1355;DHT22;671;48.972;9.276;2024-02-14T12:48:12;14.90;99.90
1355;DHT22;671;48.972;9.276;2024-02-14T12:50:40;15.00;99.90
1355;DHT22;671;48.972;9.276;2024-02-14T12:53:11;15.10;99.90
1355;DHT22;671;48.972;9.276;2024-02-14T12:55:37;15.10;99.90
1355;DHT22;671;48.972;9.276;2024-02-14T12:58:04;15.10;99.90
1355;DHT22;671;48.972;9.276;2024-02-14T13:00:30;15.20;99.90
1355;DHT22;671;48.972;9.276;2024-02-14T13:02:58;15.30;99.90
1355;DHT22;671;48.972;9.276;2024-02-14T13:05:26;15.30;99.90
1355;DHT22;671;48.972;9.276;2024-02-14T13:07:53;15.30;99.90
1355;DHT22;671;48.972;9.276;2024-02-14T13:10:19;15.40;99.90
1355;DHT22;671;48.972;9.276;2024-02-14T13:12:46;15.50;99.90
1355;DHT22;671;48.972;9.276;2024-02-14T13:15:13;15.60;99.90
1355;DHT22;671;48.972;9.276;2024-02-14T13:17:39;15.70;99.90
1355;DHT22;671;48.972;9.276;2024-02-14T13:20:06;15.70;99.90
1355;DHT22;671;48.972;9.276;2024-02-14T13:22:32;15.90;99.90
1355;DHT22;671;48.972;9.276;2024-02-14T13:24:59;16.00;99.90
1355;DHT22;671;48.972;9.276;2024-02-14T13:27:26;16.10;99.90
1355;DHT22;671;48.972;9.276;2024-02-14T13:29:53;16.10;99.90
1355;DHT22;671;48.972;9.276;2024-02-14T13:32:19;16.10;99.90
1355;DHT22;671;48.972;9.276;2024-02-14T13:34:46;16.20;99.90
1355;DHT22;671;48.972;9.276;2024-02-14T13:37:14;16.20;99.90
1355;DHT22;671;48.972;9.276;2024-02-14T13:39:41;16.00;99.90
1355;DHT22;671;48.972;9.276;2024-02-14T13:42:08;16.00;99.90
1355;DHT22;671;48.972;9.276;2024-02-14T13:44:34;16.00;99.90
1355;DHT22;671;48.972;9.276;2024-02-14T13:47:01;16.10;99.90
1355;DHT22;671;48.972;9.276;2024-02-14T13:49:29;16.10;99.90
1355;DHT22;671;48.972;9.276;2024-02-14T13:51:55;16.10;99.90
1355;DHT22;671;48.972;9.276;2024-02-14T13:54:22;16.00;99.90
1355;DHT22;671;48.972;9.276;2024-02-14T13:56:50;16.10;99.90
1355;DHT22;671;48.972;9.276;2024-02-14T13:59:18;16.10;99.90
1355;DHT22;671;48.972;9.276;2024-02-14T14:01:47;16.00;99.90
1355;DHT22;671;48.972;9.276;2024-02-14T14:04:15;15.90;99.90
1355;DHT22;671;48.972;9.276;2024-02-14T14:06:41;15.80;99.90
1355;DHT22;671;48.972;9.276;2024-02-14T14:09:08;15.80;99.90
1355;DHT22;671;48.972;9.276;2024-02-14T14:11:36;15.70;99.90
1355;DHT22;671;48.972;9.276;2024-02-14T14:14:04;15.70;99.90
1355;DHT22;671;48.972;9.276;2024-02-14T14:16:30;15.70;99.90
1355;DHT22;671;48.972;9.276;2024-02-14T14:18:59;15.70;99.90
1355;DHT22;671;48.972;9.276;2024-02-14T14:21:25;15.90;99.90
1355;DHT22;671;48.972;9.276;2024-02-14T14:23:52;15.90;99.90
1355;DHT22;671;48.972;9.276;2024-02-14T14:26:18;15.90;99.90
1355;DHT22;671;48.972;9.276;2024-02-14T14:28:46;15.90;99.90
1355;DHT22;671;48.972;9.276;2024-02-14T14:31:12;15.90;99.90
1355;DHT22;671;48.972;9.276;2024-02-14T14:33:39;15.90;99.90
1355;DHT22;671;48.972;9.276;2024-02-14T14:36:06;15.80;99.90
1355;DHT22;671;48.972;9.276;2024-02-14T14:38:32;15.80;99.90
1355;DHT22;671;48.972;9.276;2024-02-14T14:40:59;15.70;99.90
1355;DHT22;671;48.972;9.276;2024-02-14T14:43:25;15.70;99.90
1355;DHT22;671;48.972;9.276;2024-02-14T14:45:52;15.60;99.90
1355;DHT22;671;48.972;9.276;2024-02-14T14:48:19;15.60;99.90
1355;DHT22;671;48.972;9.276;2024-02-14T14:50:45;15.50;99.90
1355;DHT22;671;48.972;9.276;2024-02-14T14:53:12;15.50;99.90
1355;DHT22;671;48.972;9.276;2024-02-14T14:55:55;15.50;99.90
1355;DHT22;671;48.972;9.276;2024-02-14T14:58:22;15.40;99.90
1355;DHT22;671;48.972;9.276;2024-02-14T15:00:53;15.40;99.90
1355;DHT22;671;48.972;9.276;2024-02-14T15:03:24;15.40;99.90
1355;DHT22;671;48.972;9.276;2024-02-14T15:05:51;15.30;99.90
1355;DHT22;671;48.972;9.276;2024-02-14T15:08:18;15.30;99.90
1355;DHT22;671;48.972;9.276;2024-02-14T15:10:50;15.30;99.90
1355;DHT22;671;48.972;9.276;2024-02-14T15:13:22;15.30;99.90
1355;DHT22;671;48.972;9.276;2024-02-14T15:15:48;15.30;99.90
1355;DHT22;671;48.972;9.276;2024-02-14T15:18:15;15.30;99.90
1355;DHT22;671;48.972;9.276;2024-02-14T15:20:42;15.20;99.90
1355;DHT22;671;48.972;9.276;2024-02-14T15:23:09;15.20;99.90
1355;DHT22;671;48.972;9.276;2024-02-14T15:25:35;15.20;99.90
1355;DHT22;671;48.972;9.276;2024-02-14T15:28:07;15.20;99.90
1355;DHT22;671;48.972;9.276;2024-02-14T15:30:38;15.10;99.90
1355;DHT22;671;48.972;9.276;2024-02-14T15:33:24;15.00;99.90
1355;DHT22;671;48.972;9.276;2024-02-14T15:35:54;15.00;99.90
1355;DHT22;671;48.972;9.276;2024-02-14T15:38:21;14.90;99.90
1355;DHT22;671;48.972;9.276;2024-02-14T15:40:53;14.80;99.90
1355;DHT22;671;48.972;9.276;2024-02-14T15:43:26;14.80;99.90
1355;DHT22;671;48.972;9.276;2024-02-14T15:45:53;14.80;99.90
1355;DHT22;671;48.972;9.276;2024-02-14T15:48:20;14.70;99.90
1355;DHT22;671;48.972;9.276;2024-02-14T15:50:47;14.70;99.90
1355;DHT22;671;48.972;9.276;2024-02-14T15:53:14;14.70;99.90
1355;DHT22;671;48.972;9.276;2024-02-14T15:55:41;14.60;99.90
1355;DHT22;671;48.972;9.276;2024-02-14T15:58:09;14.60;99.90
1355;DHT22;671;48.972;9.276;2024-02-14T16:00:39;14.60;99.90
1355;DHT22;671;48.972;9.276;2024-02-14T16:03:05;14.60;99.90
1355;DHT22;671;48.972;9.276;2024-02-14T16:05:32;14.60;99.90
1355;DHT22;671;48.972;9.276;2024-02-14T16:07:58;14.50;99.90
1355;DHT22;671;48.972;9.276;2024-02-14T16:10:25;14.50;99.90
1355;DHT22;671;48.972;9.276;2024-02-14T16:12:51;14.50;99.90
1355;DHT22;671;48.972;9.276;2024-02-14T16:15:19;14.50;99.90
1355;DHT22;671;48.972;9.276;2024-02-14T16:17:46;14.40;99.90
1355;DHT22;671;48.972;9.276;2024-02-14T16:20:14;14.40;99.90
1355;DHT22;671;48.972;9.276;2024-02-14T16:22:41;14.30;99.90
1355;DHT22;671;48.972;9.276;2024-02-14T16:25:08;14.30;99.90
1355;DHT22;671;48.972;9.276;2024-02-14T16:27:35;14.20;99.90
1355;DHT22;671;48.972;9.276;2024-02-14T16:30:03;14.20;99.90